createdAt,value
2023-02-03T00:00:48.355Z,6.47
2023-02-03T00:03:17.591Z,8.27
2023-02-03T00:05:44.430Z,7.03
2023-02-03T00:08:12.186Z,7.10
2023-02-03T00:10:39.697Z,8.50
2023-02-03T00:13:06.957Z,7.38
2023-02-03T00:15:33.618Z,9.60
2023-02-03T00:18:00.286Z,9.05
2023-02-03T00:20:27.377Z,9.70
2023-02-03T00:22:54.198Z,12.20
2023-02-03T00:25:21.539Z,6.80
2023-02-03T00:27:48.192Z,13.07
2023-02-03T00:30:17.219Z,12.80
2023-02-03T00:32:44.060Z,5.07
2023-02-03T00:35:10.748Z,7.03
2023-02-03T00:37:37.385Z,10.30
2023-02-03T00:40:04.329Z,9.00
2023-02-03T00:42:31.086Z,6.82
2023-02-03T00:44:57.726Z,5.90
2023-02-03T00:47:24.424Z,7.72
2023-02-03T00:49:51.063Z,8.00
2023-02-03T00:52:17.740Z,7.90
2023-02-03T00:54:44.411Z,6.40
2023-02-03T00:57:11.078Z,7.60
2023-02-03T00:59:37.789Z,6.07
2023-02-03T01:02:04.543Z,8.05
2023-02-03T01:04:31.179Z,11.38
2023-02-03T01:06:59.758Z,6.75
2023-02-03T01:09:26.878Z,6.13
2023-02-03T01:11:53.609Z,8.27
2023-02-03T01:14:20.465Z,7.43
2023-02-03T01:16:47.164Z,6.55
2023-02-03T01:19:14.774Z,4.50
2023-02-03T01:21:41.460Z,4.60
2023-02-03T01:24:09.638Z,5.10
2023-02-03T01:26:36.674Z,3.03
2023-02-03T01:29:06.054Z,2.95
2023-02-03T01:31:39.592Z,2.58
2023-02-03T01:34:16.399Z,4.28
2023-02-03T01:36:43.100Z,2.75
2023-02-03T01:39:10.067Z,6.07
2023-02-03T01:41:39.072Z,5.75
2023-02-03T01:44:40.075Z,6.55
2023-02-03T01:47:23.412Z,4.18
2023-02-03T01:50:04.855Z,2.95
2023-02-03T01:52:32.830Z,2.42
2023-02-03T01:55:03.002Z,5.53
2023-02-03T01:57:37.414Z,2.95
2023-02-03T02:00:06.870Z,3.15
2023-02-03T02:02:33.882Z,2.67
2023-02-03T02:05:34.365Z,4.57
2023-02-03T02:08:06.134Z,3.03
2023-02-03T02:10:33.815Z,2.38
2023-02-03T02:13:02.476Z,3.10
2023-02-03T02:15:50.399Z,4.72
2023-02-03T02:18:36.373Z,2.63
2023-02-03T02:21:22.377Z,4.03
2023-02-03T02:24:13.796Z,3.75
2023-02-03T02:27:04.974Z,8.13
2023-02-03T02:29:40.602Z,3.67
2023-02-03T02:32:15.041Z,4.03
2023-02-03T02:35:06.472Z,4.13
2023-02-03T02:37:53.821Z,1.85
2023-02-03T02:40:38.740Z,3.55
2023-02-03T02:43:08.111Z,2.42
2023-02-03T02:45:41.488Z,2.42
2023-02-03T02:48:15.345Z,2.05
2023-02-03T02:53:13.258Z,5.53
2023-02-03T02:55:44.006Z,1.77
2023-02-03T02:58:14.011Z,3.33
2023-02-03T03:00:41.347Z,2.83
2023-02-03T03:03:16.140Z,2.95
2023-02-03T03:05:48.337Z,1.83
2023-02-03T03:08:16.277Z,2.63
2023-02-03T03:10:44.698Z,3.63
2023-02-03T03:13:20.505Z,7.65
2023-02-03T03:15:52.101Z,5.63
2023-02-03T03:18:30.290Z,2.80
2023-02-03T03:21:05.750Z,3.13
2023-02-03T03:23:39.982Z,3.67
2023-02-03T03:26:23.232Z,2.30
2023-02-03T03:28:55.389Z,4.70
2023-02-03T03:31:22.192Z,3.42
2023-02-03T03:33:49.340Z,2.72
2023-02-03T03:36:32.195Z,3.13
2023-02-03T03:39:23.317Z,2.33
2023-02-03T03:41:49.915Z,4.90
2023-02-03T03:44:19.138Z,4.05
2023-02-03T03:46:55.785Z,3.95
2023-02-03T03:49:24.587Z,8.63
2023-02-03T03:52:04.716Z,7.18
2023-02-03T03:54:36.192Z,4.65
2023-02-03T03:57:09.782Z,4.95
2023-02-03T03:59:45.699Z,6.53
2023-02-03T04:02:14.196Z,5.88
2023-02-03T04:04:41.936Z,3.90
2023-02-03T04:07:08.569Z,6.53
2023-02-03T04:09:37.978Z,4.00
2023-02-03T04:12:06.473Z,6.82
2023-02-03T04:14:40.732Z,4.88
2023-02-03T04:17:11.034Z,6.57
2023-02-03T04:19:37.754Z,4.38
2023-02-03T04:22:04.346Z,5.32
2023-02-03T04:24:30.982Z,8.65
2023-02-03T04:26:57.747Z,9.65
2023-02-03T04:29:24.478Z,5.90
2023-02-03T04:31:53.618Z,5.85
2023-02-03T04:34:22.575Z,12.73
2023-02-03T04:36:49.170Z,7.78
2023-02-03T04:39:15.900Z,9.98
2023-02-03T04:41:42.610Z,8.63
2023-02-03T04:44:11.512Z,5.15
2023-02-03T04:46:38.149Z,6.70
2023-02-03T04:49:04.812Z,9.55
2023-02-03T04:51:31.474Z,7.38
2023-02-03T04:53:58.107Z,8.18
2023-02-03T04:56:24.816Z,6.22
2023-02-03T04:58:51.438Z,9.70
2023-02-03T05:01:20.316Z,7.95
2023-02-03T05:03:49.538Z,6.10
2023-02-03T05:06:18.586Z,4.47
2023-02-03T05:08:45.354Z,6.93
2023-02-03T05:11:14.249Z,4.68
2023-02-03T05:13:43.362Z,6.63
2023-02-03T05:16:10.108Z,8.85
2023-02-03T05:18:36.747Z,5.32
2023-02-03T05:21:06.135Z,6.72
2023-02-03T05:23:37.585Z,6.95
2023-02-03T05:26:06.879Z,4.88
2023-02-03T05:28:33.755Z,8.05
2023-02-03T05:31:04.393Z,9.82
2023-02-03T05:33:33.536Z,4.32
2023-02-03T05:36:02.735Z,8.07
2023-02-03T05:38:29.469Z,5.03
2023-02-03T05:41:17.157Z,7.07
2023-02-03T05:43:43.833Z,5.22
2023-02-03T05:46:13.048Z,9.50
2023-02-03T05:48:44.393Z,8.18
2023-02-03T05:51:11.026Z,8.50
2023-02-03T05:53:37.653Z,4.38
2023-02-03T05:56:06.624Z,4.32
2023-02-03T05:58:35.751Z,6.90
2023-02-03T06:01:02.474Z,6.53
2023-02-03T06:03:29.117Z,4.30
2023-02-03T06:05:55.937Z,5.80
2023-02-03T06:08:22.608Z,8.07
2023-02-03T06:10:49.313Z,9.10
2023-02-03T06:13:16.717Z,8.52
2023-02-03T06:15:44.172Z,5.15
2023-02-03T06:18:10.950Z,3.47
2023-02-03T06:20:40.159Z,6.40
2023-02-03T06:23:06.833Z,4.30
2023-02-03T06:25:35.846Z,5.05
2023-02-03T06:28:05.056Z,4.47
2023-02-03T06:30:31.851Z,4.50
2023-02-03T06:32:58.526Z,3.05
2023-02-03T06:35:25.183Z,4.75
2023-02-03T06:37:51.926Z,4.65
2023-02-03T06:40:18.876Z,5.47
2023-02-03T06:42:47.124Z,5.25
2023-02-03T06:45:16.719Z,6.30
2023-02-03T06:47:45.252Z,5.43
2023-02-03T06:50:15.956Z,4.78
2023-02-03T06:52:42.738Z,3.72
2023-02-03T06:55:10.091Z,4.03
2023-02-03T06:57:43.668Z,5.75
2023-02-03T07:00:19.052Z,7.13
2023-02-03T07:02:46.881Z,4.65
2023-02-03T07:05:16.280Z,2.97
2023-02-03T07:07:42.883Z,5.65
2023-02-03T07:10:10.255Z,7.88
2023-02-03T07:12:36.951Z,6.15
2023-02-03T07:15:07.944Z,7.63
2023-02-03T07:17:34.662Z,4.10
2023-02-03T07:20:01.473Z,4.55
2023-02-03T07:22:28.196Z,4.65
2023-02-03T07:24:54.818Z,4.97
2023-02-03T07:27:21.476Z,2.55
2023-02-03T07:29:48.134Z,5.32
2023-02-03T07:32:14.866Z,3.25
2023-02-03T07:34:41.667Z,2.45
2023-02-03T07:37:10.708Z,3.15
2023-02-03T07:39:37.343Z,2.30
2023-02-03T07:42:04.174Z,4.05
2023-02-03T07:44:30.976Z,8.55
2023-02-03T07:46:57.901Z,4.57
2023-02-03T07:49:24.605Z,3.92
2023-02-03T07:51:53.688Z,4.75
2023-02-03T07:54:20.433Z,4.07
2023-02-03T07:56:47.092Z,4.20
2023-02-03T07:59:13.808Z,3.60
2023-02-03T08:01:40.605Z,2.75
2023-02-03T08:04:08.725Z,2.50
2023-02-03T08:06:35.549Z,7.82
2023-02-03T08:09:02.270Z,4.50
2023-02-03T08:11:28.949Z,7.35
2023-02-03T08:13:55.588Z,3.17
2023-02-03T08:16:22.381Z,5.05
2023-02-03T08:18:49.178Z,4.93
2023-02-03T08:21:15.950Z,2.95
2023-02-03T08:23:42.580Z,5.32
2023-02-03T08:26:09.289Z,4.65
2023-02-03T08:28:36.045Z,6.88
2023-02-03T08:31:09.057Z,3.97
2023-02-03T08:33:35.898Z,4.72
2023-02-03T08:36:03.048Z,2.55
2023-02-03T08:38:30.049Z,2.95
2023-02-03T08:40:56.774Z,4.82
2023-02-03T08:43:23.472Z,5.82
2023-02-03T08:45:50.221Z,5.57
2023-02-03T08:48:16.946Z,3.97
2023-02-03T08:50:51.949Z,2.97
2023-02-03T08:53:18.931Z,6.72
2023-02-03T08:55:45.679Z,6.32
2023-02-03T08:58:14.880Z,4.50
2023-02-03T09:00:42.605Z,3.38
2023-02-03T09:03:09.577Z,4.85
2023-02-03T09:05:38.864Z,5.32
2023-02-03T09:08:07.956Z,3.45
2023-02-03T09:10:35.762Z,4.55
2023-02-03T09:13:02.497Z,3.92
2023-02-03T09:15:29.306Z,5.13
2023-02-03T09:17:57.804Z,2.72
2023-02-03T09:20:27.742Z,7.85
2023-02-03T09:22:54.986Z,3.42
2023-02-03T09:25:21.716Z,3.63
2023-02-03T09:27:48.440Z,2.92
2023-02-03T09:30:18.074Z,3.20
2023-02-03T09:32:48.809Z,6.50
2023-02-03T09:35:20.068Z,1.80
2023-02-03T09:37:46.823Z,3.90
2023-02-03T09:40:21.888Z,2.65
2023-02-03T09:43:20.706Z,3.83
2023-02-03T09:45:47.507Z,3.08
2023-02-03T09:48:21.191Z,4.75
2023-02-03T09:50:49.980Z,3.15
2023-02-03T09:53:36.246Z,2.80
2023-02-03T09:56:03.407Z,2.35
2023-02-03T09:58:33.885Z,4.55
2023-02-03T10:01:02.662Z,3.78
2023-02-03T10:03:36.824Z,1.63
2023-02-03T10:06:18.520Z,4.90
2023-02-03T10:08:51.283Z,2.10
2023-02-03T10:11:42.287Z,2.28
2023-02-03T10:14:18.233Z,1.70
2023-02-03T10:17:12.330Z,1.35
2023-02-03T10:19:44.414Z,3.47
2023-02-03T10:22:16.755Z,1.88
2023-02-03T10:25:05.677Z,0.93
2023-02-03T10:27:35.032Z,4.07
2023-02-03T10:30:21.948Z,0.98
2023-02-03T10:32:59.522Z,1.25
2023-02-03T10:35:41.346Z,1.48
2023-02-03T10:38:15.565Z,2.95
2023-02-03T10:40:44.758Z,3.17
2023-02-03T10:43:30.053Z,1.63
2023-02-03T10:45:58.800Z,3.33
2023-02-03T10:48:28.003Z,1.67
2023-02-03T10:50:57.184Z,2.03
2023-02-03T10:53:34.552Z,6.50
2023-02-03T10:56:05.094Z,2.65
2023-02-03T10:58:34.098Z,1.20
2023-02-03T11:01:12.799Z,1.02
2023-02-03T11:03:45.052Z,3.33
2023-02-03T11:06:16.968Z,0.90
2023-02-03T11:08:49.224Z,1.30
2023-02-03T11:11:32.387Z,1.40
2023-02-03T11:14:07.886Z,1.05
2023-02-03T11:16:39.907Z,1.50
2023-02-03T11:19:29.799Z,1.27
2023-02-03T11:21:56.866Z,2.38
2023-02-03T11:24:27.931Z,1.25
2023-02-03T11:27:09.552Z,2.35
2023-02-03T11:29:40.168Z,1.20
2023-02-03T11:32:23.091Z,1.88
2023-02-03T11:34:56.452Z,2.60
2023-02-03T11:37:29.473Z,1.30
2023-02-03T11:40:18.987Z,4.97
2023-02-03T11:43:00.302Z,2.70
2023-02-03T11:45:44.433Z,1.58
2023-02-03T11:51:05.036Z,0.88
2023-02-03T11:53:56.319Z,5.50
2023-02-03T11:56:55.585Z,2.30
2023-02-03T11:59:52.619Z,1.42
2023-02-03T12:02:28.497Z,0.98
2023-02-03T12:05:13.300Z,1.90
2023-02-03T12:07:52.410Z,2.08
2023-02-03T12:10:47.571Z,1.02
2023-02-03T12:13:27.815Z,1.35
2023-02-03T12:15:57.611Z,0.57
2023-02-03T12:18:55.096Z,1.20
2023-02-03T12:21:44.534Z,2.03
2023-02-03T12:24:55.229Z,1.25
2023-02-03T12:27:31.084Z,1.55
2023-02-03T12:30:03.696Z,0.98
2023-02-03T12:32:46.231Z,1.70
2023-02-03T12:35:21.337Z,0.80
2023-02-03T12:38:01.671Z,2.35
2023-02-03T12:40:49.451Z,0.57
2023-02-03T12:43:37.446Z,1.42
2023-02-03T12:46:35.027Z,3.75
2023-02-03T12:49:01.669Z,1.42
2023-02-03T12:51:34.901Z,2.40
2023-02-03T12:54:22.351Z,0.65
2023-02-03T12:56:56.492Z,1.00
2023-02-03T12:59:25.838Z,0.60
2023-02-03T13:02:14.149Z,0.80
2023-02-03T13:04:57.942Z,0.95
2023-02-03T13:07:41.847Z,0.40
2023-02-03T13:10:31.597Z,1.77
2023-02-03T13:12:58.968Z,0.57
2023-02-03T13:15:31.141Z,0.30
2023-02-03T13:18:42.654Z,0.40
2023-02-03T13:21:15.057Z,1.55
2023-02-03T13:23:47.978Z,5.25
2023-02-03T13:26:54.001Z,6.53
2023-02-03T13:29:45.621Z,2.63
2023-02-03T13:32:17.996Z,1.13
2023-02-03T13:34:54.751Z,0.90
2023-02-03T13:37:57.398Z,0.45
2023-02-03T13:40:33.358Z,0.32
2023-02-03T13:43:07.112Z,0.30
2023-02-03T13:45:38.699Z,0.52
2023-02-03T13:48:14.377Z,0.52
2023-02-03T13:50:44.103Z,1.60
2023-02-03T13:53:24.821Z,0.52
2023-02-03T13:56:00.615Z,1.05
2023-02-03T13:58:33.132Z,1.95
2023-02-03T14:01:30.709Z,1.08
2023-02-03T14:03:58.395Z,2.15
2023-02-03T14:06:40.496Z,0.80
2023-02-03T14:09:31.887Z,0.38
2023-02-03T14:12:29.868Z,1.10
2023-02-03T14:15:04.650Z,0.85
2023-02-03T14:17:34.350Z,0.95
2023-02-03T14:20:03.364Z,1.25
2023-02-03T14:22:31.460Z,1.33
2023-02-03T14:25:05.543Z,0.55
2023-02-03T14:27:32.608Z,1.20
2023-02-03T14:30:11.173Z,0.55
2023-02-03T14:33:03.954Z,0.60
2023-02-03T14:35:33.855Z,1.33
2023-02-03T14:38:11.843Z,0.82
2023-02-03T14:40:48.022Z,1.10
2023-02-03T14:43:48.800Z,0.68
2023-02-03T14:46:39.008Z,0.70
2023-02-03T14:49:52.217Z,0.55
2023-02-03T14:52:36.633Z,0.65
2023-02-03T14:55:24.457Z,1.20
2023-02-03T14:58:01.481Z,0.50
2023-02-03T15:00:32.067Z,1.13
2023-02-03T15:03:10.446Z,1.25
2023-02-03T15:05:44.133Z,3.10
2023-02-03T15:08:36.237Z,1.25
2023-02-03T15:11:27.772Z,2.00
2023-02-03T15:13:56.621Z,1.58
2023-02-03T15:16:25.438Z,0.77
2023-02-03T15:18:59.018Z,0.60
2023-02-03T15:21:26.329Z,2.85
2023-02-03T15:23:54.221Z,1.55
2023-02-03T15:26:27.492Z,1.63
2023-02-03T15:28:59.285Z,1.65
2023-02-03T15:31:45.812Z,1.40
2023-02-03T15:34:26.917Z,1.20
2023-02-03T15:37:01.888Z,3.33
2023-02-03T15:39:54.865Z,1.45
2023-02-03T15:42:33.853Z,5.47
2023-02-03T15:45:19.873Z,4.93
2023-02-03T15:47:58.137Z,1.50
2023-02-03T15:50:34.163Z,0.80
2023-02-03T15:53:07.661Z,1.65
2023-02-03T15:55:42.897Z,1.35
2023-02-03T15:58:22.465Z,2.63
2023-02-03T16:01:03.181Z,1.27
2023-02-03T16:03:41.683Z,0.85
2023-02-03T16:06:19.466Z,4.32
2023-02-03T16:08:48.684Z,0.68
2023-02-03T16:11:29.701Z,2.28
2023-02-03T16:13:59.658Z,1.63
2023-02-03T16:16:34.449Z,1.55
2023-02-03T16:19:06.501Z,1.90
2023-02-03T16:21:35.953Z,0.90
2023-02-03T16:24:07.589Z,0.95
2023-02-03T16:26:36.723Z,3.35
2023-02-03T16:29:31.415Z,1.67
2023-02-03T16:32:17.575Z,1.23
2023-02-03T16:35:03.149Z,1.08
2023-02-03T16:37:51.833Z,1.23
2023-02-03T16:40:41.988Z,0.88
2023-02-03T16:43:35.013Z,3.28
2023-02-03T16:46:20.659Z,0.50
2023-02-03T16:49:06.250Z,0.55
2023-02-03T16:51:39.100Z,0.60
2023-02-03T16:54:06.909Z,1.20
2023-02-03T16:56:36.089Z,0.85
2023-02-03T16:59:02.827Z,0.50
2023-02-03T17:01:29.662Z,0.70
2023-02-03T17:03:56.391Z,1.02
2023-02-03T17:06:23.139Z,0.70
2023-02-03T17:08:52.080Z,1.80
2023-02-03T17:11:21.584Z,1.48
2023-02-03T17:13:48.839Z,0.60
2023-02-03T17:16:18.390Z,1.13
2023-02-03T17:18:46.374Z,0.98
2023-02-03T17:21:18.238Z,1.30
2023-02-03T17:23:44.969Z,1.23
2023-02-03T17:26:11.710Z,0.88
2023-02-03T17:28:40.237Z,0.57
2023-02-03T17:31:07.824Z,0.73
2023-02-03T17:33:37.249Z,0.68
2023-02-03T17:36:10.113Z,1.40
2023-02-03T17:55:19.204Z,0.77
2023-02-03T17:57:45.892Z,1.17
2023-02-03T18:00:13.071Z,2.63
2023-02-03T18:02:40.293Z,1.65
2023-02-03T18:05:07.375Z,1.42
2023-02-03T18:07:34.249Z,1.90
2023-02-03T18:10:03.197Z,2.08
2023-02-03T18:12:30.595Z,3.75
2023-02-03T18:15:00.064Z,1.27
2023-02-03T18:17:26.832Z,1.30
2023-02-03T18:20:00.419Z,2.20
2023-02-03T18:22:27.335Z,1.23
2023-02-03T18:24:55.375Z,1.10
2023-02-03T18:27:22.230Z,2.20
2023-02-03T18:29:48.989Z,3.33
2023-02-03T18:32:16.369Z,1.67
2023-02-03T18:34:43.510Z,1.30
2023-02-03T18:37:11.151Z,1.42
2023-02-03T18:39:40.334Z,1.67
2023-02-03T18:42:07.340Z,3.67
2023-02-03T18:44:34.206Z,1.50
2023-02-03T18:47:07.068Z,0.80
2023-02-03T18:49:36.346Z,1.95
2023-02-03T18:52:03.688Z,1.00
2023-02-03T18:54:30.892Z,1.48
2023-02-03T18:57:02.730Z,2.55
2023-02-03T18:59:31.884Z,1.58
2023-02-03T19:01:58.648Z,2.00
2023-02-03T19:04:27.862Z,1.30
2023-02-03T19:06:54.615Z,2.83
2023-02-03T19:09:25.050Z,1.35
2023-02-03T19:11:51.924Z,1.50
2023-02-03T19:14:19.340Z,1.70
2023-02-03T19:16:46.377Z,1.60
2023-02-03T19:19:14.339Z,2.33
2023-02-03T19:21:43.509Z,1.77
2023-02-03T19:24:13.948Z,2.70
2023-02-03T19:26:40.703Z,3.92
2023-02-03T19:29:07.518Z,2.95
2023-02-03T19:31:35.958Z,2.10
2023-02-03T19:34:02.800Z,1.70
2023-02-03T19:36:30.188Z,3.42
2023-02-03T19:39:00.001Z,2.40
2023-02-03T19:41:27.588Z,1.77
2023-02-03T19:43:54.279Z,4.93
2023-02-03T19:46:23.570Z,1.50
2023-02-03T19:48:50.328Z,2.65
2023-02-03T19:51:17.444Z,1.30
2023-02-03T19:53:44.166Z,2.65
2023-02-03T19:56:10.915Z,1.48
2023-02-03T19:58:38.558Z,2.38
2023-02-03T20:01:05.454Z,1.70
2023-02-03T20:03:32.629Z,3.45
2023-02-03T20:06:01.009Z,3.10
2023-02-03T20:08:28.264Z,3.53
2023-02-03T20:10:55.233Z,3.17
2023-02-03T20:13:24.409Z,3.05
2023-02-03T20:15:55.838Z,2.42
2023-02-03T20:18:22.569Z,2.28
2023-02-03T20:20:53.585Z,2.55
2023-02-03T20:23:20.297Z,3.50
2023-02-03T20:25:53.633Z,2.22
2023-02-03T20:28:22.108Z,3.00
2023-02-03T20:30:59.922Z,3.53
2023-02-03T20:33:29.029Z,5.45
2023-02-03T20:35:56.645Z,8.00
2023-02-03T20:38:23.948Z,3.45
2023-02-03T20:40:50.751Z,4.03
2023-02-03T20:43:23.894Z,6.25
2023-02-03T20:45:51.750Z,3.15
2023-02-03T20:48:22.366Z,5.45
2023-02-03T20:50:50.384Z,2.88
2023-02-03T20:53:22.575Z,2.55
2023-02-03T20:55:50.270Z,3.40
2023-02-03T20:58:25.852Z,3.28
2023-02-03T21:00:53.142Z,3.65
2023-02-03T21:03:39.346Z,4.18
2023-02-03T21:06:16.939Z,7.85
2023-02-03T21:08:45.340Z,3.65
2023-02-03T21:11:18.700Z,4.60
2023-02-03T21:13:49.967Z,2.92
2023-02-03T21:16:28.142Z,4.05
2023-02-03T21:19:02.802Z,2.58
2023-02-03T21:21:38.169Z,4.78
2023-02-03T21:24:37.822Z,4.07
2023-02-03T21:27:39.215Z,3.33
2023-02-03T21:30:34.751Z,3.00
2023-02-03T21:33:20.996Z,5.20
2023-02-03T21:35:47.649Z,4.30
2023-02-03T21:38:32.139Z,3.03
2023-02-03T21:41:03.999Z,4.22
2023-02-03T21:43:38.426Z,4.72
2023-02-03T21:46:05.326Z,3.38
2023-02-03T21:48:37.498Z,3.53
2023-02-03T21:51:22.416Z,3.58
2023-02-03T21:54:00.502Z,4.28
2023-02-03T21:56:34.972Z,7.13
2023-02-03T21:59:04.825Z,3.40
2023-02-03T22:01:36.849Z,4.07
2023-02-03T22:04:06.358Z,4.65
2023-02-03T22:06:54.239Z,6.60
2023-02-03T22:09:25.590Z,3.88
2023-02-03T22:11:52.812Z,4.55
2023-02-03T22:14:22.951Z,4.60
2023-02-03T22:16:49.745Z,5.13
2023-02-03T22:19:19.502Z,5.57
2023-02-03T22:21:47.742Z,7.15
2023-02-03T22:24:14.442Z,5.05
2023-02-03T22:26:41.093Z,5.32
2023-02-03T22:29:07.882Z,8.18
2023-02-03T22:31:36.860Z,5.00
2023-02-03T22:34:03.678Z,5.57
2023-02-03T22:36:30.438Z,4.82
2023-02-03T22:38:57.119Z,6.25
2023-02-03T22:41:23.769Z,8.57
2023-02-03T22:43:52.888Z,8.27
2023-02-03T22:46:24.279Z,7.28
2023-02-03T22:48:51.092Z,8.45
2023-02-03T22:51:20.259Z,5.60
2023-02-03T22:53:47.039Z,9.77
2023-02-03T22:56:13.758Z,6.10
2023-02-03T22:58:45.292Z,6.38
2023-02-03T23:01:14.280Z,7.22
2023-02-03T23:03:40.932Z,5.63
2023-02-03T23:08:49.053Z,8.30
2023-02-03T23:11:15.767Z,6.65
2023-02-03T23:13:42.415Z,13.13
2023-02-03T23:16:09.165Z,6.03
2023-02-03T23:18:35.833Z,6.35
2023-02-03T23:21:07.160Z,8.13
2023-02-03T23:23:33.804Z,7.20
2023-02-03T23:26:02.929Z,4.00
2023-02-03T23:28:29.707Z,4.57
2023-02-03T23:30:56.505Z,6.38
2023-02-03T23:33:23.417Z,5.15
2023-02-03T23:35:50.768Z,4.38
2023-02-03T23:38:18.040Z,4.97
2023-02-03T23:40:49.223Z,6.90
2023-02-03T23:43:18.149Z,4.03
2023-02-03T23:45:44.841Z,4.60
2023-02-03T23:48:13.722Z,5.18
2023-02-03T23:50:40.399Z,5.63
2023-02-03T23:53:09.947Z,3.35
2023-02-03T23:55:39.168Z,6.95
2023-02-03T23:58:05.828Z,4.25
